Littleton, Massachusetts
Current Conditions -  °F | °C
As of 6:52 PM on Wednesday 22 Oct 2014 (Local Time) from KFIT Reporting Station
Light Rain Light Rain  
Wind Chill: 43°   Ceiling: 1200
Heat Index: 49°   Visibility: 4mi
Dew Point: 45°   Wind: 16mph
Humidity: 86%   Direction: 20°NNE
Pressure: 29.94"   Gusts: 26mph
Location:  42.54°N, 71.51°W
Report Text: KFIT 222252Z AUTO 02014G23KT 4SM -RA BR BKN012 OVC018 09/07 A2994 RMK AO2 PK WND 03028/2212 SLP141 P0004 T00940072
Loading
Personal Weather Stations






























Interactive Weather Map
Tropical Storm Tracking
New forecast layout! Learn more

10-Day Weather Forecast

Advertisements
Track Severe Weather on mobile